createdAt,value
2023-04-15T00:01:05.923Z,95357.31
2023-04-15T00:02:39.109Z,95357.41
2023-04-15T00:04:11.094Z,95356.88
2023-04-15T00:05:43.268Z,95365.34
2023-04-15T00:07:14.973Z,95359.59
2023-04-15T00:08:46.771Z,95356.53
2023-04-15T00:10:18.691Z,95356.09
2023-04-15T00:11:50.616Z,95353.22
2023-04-15T00:13:22.256Z,95359.09
2023-04-15T00:14:54.458Z,95346.31
2023-04-15T00:16:26.714Z,95350.03
2023-04-15T00:17:59.804Z,95343.16
2023-04-15T00:19:31.522Z,95347.00
2023-04-15T00:21:03.354Z,95355.94
2023-04-15T00:22:35.024Z,95354.81
2023-04-15T00:24:06.749Z,95349.63
2023-04-15T00:25:38.610Z,95357.13
2023-04-15T00:27:11.434Z,95358.13
2023-04-15T00:28:43.603Z,95356.13
2023-04-15T00:30:15.265Z,95357.56
2023-04-15T00:31:46.894Z,95357.22
2023-04-15T00:33:19.908Z,95363.41
2023-04-15T00:34:51.753Z,95360.44
2023-04-15T00:36:23.462Z,95348.09
2023-04-15T00:37:55.104Z,95351.94
2023-04-15T00:39:28.133Z,95355.03
2023-04-15T00:40:59.791Z,95347.34
2023-04-15T00:42:31.419Z,95357.25
2023-04-15T00:44:03.036Z,95348.13
2023-04-15T00:45:34.703Z,95352.50
2023-04-15T00:47:06.429Z,95356.34
2023-04-15T00:48:39.437Z,95356.25
2023-04-15T00:50:11.465Z,95347.34
2023-04-15T00:51:43.086Z,95346.25
2023-04-15T00:53:14.709Z,95351.28
2023-04-15T00:54:46.437Z,95356.59
2023-04-15T00:56:18.151Z,95350.41
2023-04-15T00:57:49.764Z,95361.09
2023-04-15T00:59:21.410Z,95352.63
2023-04-15T01:00:54.480Z,95354.59
2023-04-15T01:02:26.346Z,95353.94
2023-04-15T01:03:59.431Z,95346.38
2023-04-15T01:05:31.343Z,95362.41
2023-04-15T01:07:02.995Z,95357.34
2023-04-15T01:08:35.526Z,95363.56
2023-04-15T01:10:08.397Z,95362.03
2023-04-15T01:11:40.279Z,95356.44
2023-04-15T01:13:12.248Z,95357.06
2023-04-15T01:14:43.843Z,95354.34
2023-04-15T01:16:15.633Z,95360.72
2023-04-15T01:17:47.293Z,95366.44
2023-04-15T01:19:20.291Z,95350.28
2023-04-15T01:20:52.134Z,95355.75
2023-04-15T01:22:23.908Z,95362.25
2023-04-15T01:23:56.893Z,95364.47
2023-04-15T01:25:32.938Z,95357.22
2023-04-15T01:27:05.332Z,95359.94
2023-04-15T01:28:37.562Z,95352.78
2023-04-15T01:30:10.621Z,95357.09
2023-04-15T01:31:49.724Z,95356.47
2023-04-15T01:33:21.481Z,95348.84
2023-04-15T01:34:53.100Z,95359.53
2023-04-15T01:36:24.776Z,95357.75
2023-04-15T01:37:56.373Z,95359.53
2023-04-15T01:39:28.121Z,95365.44
2023-04-15T01:41:01.496Z,95366.41
2023-04-15T01:42:33.708Z,95357.91
2023-04-15T01:44:05.902Z,95352.31
2023-04-15T01:45:37.595Z,95358.13
2023-04-15T01:47:09.229Z,95366.53
2023-04-15T01:48:41.179Z,95359.09
2023-04-15T01:50:13.103Z,95358.19
2023-04-15T01:51:44.748Z,95358.31
2023-04-15T01:53:16.852Z,95360.19
2023-04-15T01:54:48.446Z,95359.28
2023-04-15T01:56:21.437Z,95362.63
2023-04-15T01:57:53.115Z,95361.06
2023-04-15T01:59:24.949Z,95360.41
2023-04-15T02:00:57.175Z,95361.16
2023-04-15T02:02:29.331Z,95362.78
2023-04-15T02:04:01.183Z,95362.91
2023-04-15T02:05:33.770Z,95368.13
2023-04-15T02:07:05.882Z,95371.28
2023-04-15T02:08:37.499Z,95360.91
2023-04-15T02:10:10.329Z,95368.97
2023-04-15T02:11:43.476Z,95368.13
2023-04-15T02:13:15.195Z,95365.03
2023-04-15T02:14:47.199Z,95375.78
2023-04-15T02:16:19.259Z,95381.19
2023-04-15T02:17:52.732Z,95380.28
2023-04-15T02:19:25.261Z,95372.69
2023-04-15T02:20:58.455Z,95372.13
2023-04-15T02:22:30.346Z,95375.91
2023-04-15T02:24:02.536Z,95379.06
2023-04-15T02:25:34.309Z,95376.31
2023-04-15T02:27:07.372Z,95369.25
2023-04-15T02:28:39.005Z,95373.22
2023-04-15T02:30:11.014Z,95372.13
2023-04-15T02:31:43.747Z,95374.44
2023-04-15T02:33:15.408Z,95379.00
2023-04-15T02:34:46.992Z,95375.03
2023-04-15T02:36:18.625Z,95378.03
2023-04-15T02:37:50.266Z,95366.91
2023-04-15T02:39:21.885Z,95366.53
2023-04-15T02:40:53.527Z,95384.97
2023-04-15T02:42:28.728Z,95377.97
2023-04-15T02:44:00.353Z,95377.06
2023-04-15T02:45:32.060Z,95377.47
2023-04-15T02:47:05.035Z,95376.00
2023-04-15T02:48:37.121Z,95374.75
2023-04-15T02:50:09.928Z,95376.00
2023-04-15T02:51:41.991Z,95382.72
2023-04-15T02:53:14.631Z,95375.78
2023-04-15T02:54:46.440Z,95378.09
2023-04-15T02:56:19.435Z,95377.59
2023-04-15T02:57:52.467Z,95377.16
2023-04-15T02:59:24.105Z,95377.19
2023-04-15T03:00:55.733Z,95372.66
2023-04-15T03:02:27.591Z,95376.38
2023-04-15T03:03:59.452Z,95372.78
2023-04-15T03:05:31.491Z,95379.03
2023-04-15T03:07:03.104Z,95372.03
2023-04-15T03:08:34.733Z,95373.69
2023-04-15T03:10:07.266Z,95378.06
2023-04-15T03:11:40.736Z,95376.72
2023-04-15T03:13:13.745Z,95372.63
2023-04-15T03:14:45.526Z,95376.44
2023-04-15T03:16:17.735Z,95369.53
2023-04-15T03:17:49.773Z,95378.88
2023-04-15T03:19:21.549Z,95377.03
2023-04-15T03:20:53.229Z,95376.94
2023-04-15T03:22:26.492Z,95371.88
2023-04-15T03:23:58.129Z,95376.03
2023-04-15T03:25:29.806Z,95371.50
2023-04-15T03:27:02.007Z,95372.41
2023-04-15T03:28:35.044Z,95367.78
2023-04-15T03:30:08.934Z,95369.25
2023-04-15T03:31:40.622Z,95377.53
2023-04-15T03:33:12.270Z,95377.47
2023-04-15T03:34:43.889Z,95386.00
2023-04-15T03:36:15.958Z,95383.97
2023-04-15T03:37:49.197Z,95376.63
2023-04-15T03:39:20.926Z,95386.72
2023-04-15T03:40:52.626Z,95379.06
2023-04-15T03:42:24.258Z,95385.63
2023-04-15T03:43:57.228Z,95384.50
2023-04-15T03:45:28.814Z,95389.28
2023-04-15T03:47:00.733Z,95384.91
2023-04-15T03:48:32.376Z,95379.72
2023-04-15T03:50:04.469Z,95385.09
2023-04-15T03:51:36.220Z,95385.13
2023-04-15T03:53:07.847Z,95389.63
2023-04-15T03:54:39.433Z,95386.00
2023-04-15T03:56:11.232Z,95387.66
2023-04-15T03:57:42.830Z,95389.22
2023-04-15T03:59:16.064Z,95385.03
2023-04-15T04:00:47.691Z,95385.63
2023-04-15T04:02:19.479Z,95384.41
2023-04-15T04:03:51.637Z,95386.91
2023-04-15T04:05:23.271Z,95380.22
2023-04-15T04:06:54.885Z,95375.94
2023-04-15T04:08:27.522Z,95374.16
2023-04-15T04:09:59.166Z,95386.38
2023-04-15T04:11:31.715Z,95386.31
2023-04-15T04:13:03.363Z,95394.25
2023-04-15T04:14:36.604Z,95390.81
2023-04-15T04:16:08.334Z,95399.09
2023-04-15T04:17:40.121Z,95393.94
2023-04-15T04:19:12.251Z,95389.41
2023-04-15T04:20:43.992Z,95385.19
2023-04-15T04:22:15.727Z,95400.97
2023-04-15T04:23:47.396Z,95395.97
2023-04-15T04:25:18.978Z,95391.22
2023-04-15T04:26:50.663Z,95394.44
2023-04-15T04:28:22.336Z,95390.09
2023-04-15T04:29:55.568Z,95396.16
2023-04-15T04:31:27.343Z,95393.97
2023-04-15T04:32:59.065Z,95401.72
2023-04-15T04:34:31.114Z,95399.09
2023-04-15T04:36:02.879Z,95389.66
2023-04-15T04:37:34.487Z,95396.06
2023-04-15T04:39:06.103Z,95398.34
2023-04-15T04:40:37.698Z,95397.84
2023-04-15T04:42:09.319Z,95403.09
2023-04-15T04:43:41.159Z,95395.38
2023-04-15T04:45:14.167Z,95398.94
2023-04-15T04:46:45.849Z,95399.34
2023-04-15T04:48:17.608Z,95404.81
2023-04-15T04:49:49.200Z,95396.53
2023-04-15T04:51:20.901Z,95403.97
2023-04-15T04:52:52.591Z,95394.38
2023-04-15T04:54:24.327Z,95394.09
2023-04-15T04:55:55.907Z,95395.66
2023-04-15T04:57:27.537Z,95398.75
2023-04-15T04:58:59.253Z,95394.66
2023-04-15T05:00:32.508Z,95394.84
2023-04-15T05:02:04.206Z,95391.75
2023-04-15T05:03:36.054Z,95391.38
2023-04-15T05:05:08.662Z,95382.50
2023-04-15T05:06:40.352Z,95395.53
2023-04-15T05:08:12.028Z,95390.13
2023-04-15T05:09:43.652Z,95393.34
2023-04-15T05:11:15.477Z,95392.09
2023-04-15T05:12:47.104Z,95392.22
2023-04-15T05:14:18.689Z,95395.47
2023-04-15T05:15:51.650Z,95396.25
2023-04-15T05:17:23.422Z,95399.09
2023-04-15T05:18:55.098Z,95400.34
2023-04-15T05:20:26.703Z,95395.66
2023-04-15T05:21:58.320Z,95395.03
2023-04-15T05:23:29.915Z,95396.56
2023-04-15T05:25:01.743Z,95401.69
2023-04-15T05:26:33.365Z,95390.03
2023-04-15T05:28:05.469Z,95396.16
2023-04-15T05:29:37.139Z,95401.41
2023-04-15T05:31:10.219Z,95399.09
2023-04-15T05:32:41.984Z,95398.97
2023-04-15T05:34:15.791Z,95406.31
2023-04-15T05:35:47.503Z,95411.25
2023-04-15T05:37:22.364Z,95406.72
2023-04-15T05:38:54.227Z,95408.13
2023-04-15T05:40:25.866Z,95409.81
2023-04-15T05:41:57.665Z,95413.38
2023-04-15T05:43:29.654Z,95404.63
2023-04-15T05:45:01.769Z,95410.72
2023-04-15T05:46:35.161Z,95411.63
2023-04-15T05:48:07.211Z,95413.06
2023-04-15T05:49:39.016Z,95403.28
2023-04-15T05:51:11.056Z,95407.41
2023-04-15T05:52:42.703Z,95408.81
2023-04-15T05:54:14.319Z,95404.56
2023-04-15T05:55:45.976Z,95404.56
2023-04-15T05:57:17.623Z,95404.06
2023-04-15T05:58:49.894Z,95408.38
2023-04-15T06:00:22.578Z,95408.03
2023-04-15T06:01:55.584Z,95407.56
2023-04-15T06:03:27.246Z,95406.03
2023-04-15T06:04:59.340Z,95407.88
2023-04-15T06:06:32.464Z,95409.22
2023-04-15T06:08:04.660Z,95412.31
2023-04-15T06:09:36.241Z,95407.75
2023-04-15T06:11:07.867Z,95412.56
2023-04-15T06:12:39.478Z,95409.94
2023-04-15T06:14:11.252Z,95403.31
2023-04-15T06:15:43.188Z,95402.28
2023-04-15T06:17:18.402Z,95405.47
2023-04-15T06:18:50.320Z,95394.03
2023-04-15T06:20:21.949Z,95398.81
2023-04-15T06:21:53.561Z,95397.00
2023-04-15T06:23:26.949Z,95402.06
2023-04-15T06:24:59.658Z,95401.50
2023-04-15T06:26:31.291Z,95408.25
2023-04-15T06:28:03.013Z,95400.59
2023-04-15T06:29:34.601Z,95409.84
2023-04-15T06:31:06.421Z,95416.03
2023-04-15T06:32:39.594Z,95414.28
2023-04-15T06:34:11.427Z,95415.94
2023-04-15T06:35:43.112Z,95407.53
2023-04-15T06:37:16.360Z,95411.38
2023-04-15T06:38:48.068Z,95411.59
2023-04-15T06:40:19.739Z,95408.41
2023-04-15T06:41:51.530Z,95417.66
2023-04-15T06:43:23.180Z,95409.09
2023-04-15T06:44:54.860Z,95408.00
2023-04-15T06:46:29.585Z,95413.28
2023-04-15T06:48:04.498Z,95411.03
2023-04-15T06:49:36.207Z,95417.19
2023-04-15T06:51:08.008Z,95412.03
2023-04-15T06:52:39.712Z,95421.28
2023-04-15T06:54:11.515Z,95424.78
2023-04-15T06:55:43.169Z,95423.28
2023-04-15T06:57:14.800Z,95419.09
2023-04-15T06:58:46.451Z,95420.75
2023-04-15T07:00:19.003Z,95422.06
2023-04-15T07:01:50.654Z,95424.28
2023-04-15T07:03:23.649Z,95423.19
2023-04-15T07:04:55.587Z,95421.50
2023-04-15T07:06:27.668Z,95425.06
2023-04-15T07:07:59.310Z,95421.41
2023-04-15T07:09:31.239Z,95423.16
2023-04-15T07:11:02.885Z,95419.53
2023-04-15T07:12:37.982Z,95418.44
2023-04-15T07:14:09.749Z,95416.44
2023-04-15T07:15:41.384Z,95410.88
2023-04-15T07:17:13.345Z,95405.69
2023-04-15T07:18:46.793Z,95408.56
2023-04-15T07:20:18.882Z,95403.78
2023-04-15T07:21:50.531Z,95405.44
2023-04-15T07:23:22.498Z,95412.53
2023-04-15T07:24:54.087Z,95409.88
2023-04-15T07:26:25.754Z,95411.25
2023-04-15T07:27:57.406Z,95418.56
2023-04-15T07:29:29.089Z,95413.69
2023-04-15T07:31:00.828Z,95419.78
2023-04-15T07:32:32.524Z,95411.50
2023-04-15T07:34:06.898Z,95416.25
2023-04-15T07:35:38.587Z,95416.44
2023-04-15T07:37:10.219Z,95418.66
2023-04-15T07:38:42.558Z,95413.94
2023-04-15T07:40:16.066Z,95416.97
2023-04-15T07:41:48.811Z,95416.50
2023-04-15T07:43:21.331Z,95424.47
2023-04-15T07:44:52.969Z,95420.47
2023-04-15T07:46:24.835Z,95424.44
2023-04-15T07:47:56.831Z,95414.91
2023-04-15T07:49:30.104Z,95417.13
2023-04-15T07:51:02.366Z,95413.81
2023-04-15T07:52:39.090Z,95413.88
2023-04-15T07:54:10.722Z,95416.13
2023-04-15T07:55:42.411Z,95414.22
2023-04-15T07:57:14.052Z,95420.13
2023-04-15T07:58:45.836Z,95419.25
2023-04-15T08:00:18.280Z,95415.94
2023-04-15T08:01:50.303Z,95418.13
2023-04-15T08:03:22.774Z,95411.22
2023-04-15T08:04:56.006Z,95412.41
2023-04-15T08:06:27.733Z,95416.19
2023-04-15T08:07:59.657Z,95411.31
2023-04-15T08:09:31.689Z,95405.44
2023-04-15T08:11:07.820Z,95404.13
2023-04-15T08:12:39.565Z,95412.03
2023-04-15T08:14:11.202Z,95408.94
2023-04-15T08:15:43.275Z,95401.91
2023-04-15T08:17:14.932Z,95409.66
2023-04-15T08:18:46.737Z,95413.69
2023-04-15T08:20:19.838Z,95410.09
2023-04-15T08:21:51.999Z,95412.09
2023-04-15T08:23:23.688Z,95414.19
2023-04-15T08:24:56.034Z,95412.44
2023-04-15T08:26:27.666Z,95412.88
2023-04-15T08:27:59.331Z,95404.66
2023-04-15T08:29:31.064Z,95406.69
2023-04-15T08:31:02.814Z,95422.03
2023-04-15T08:32:34.486Z,95404.22
2023-04-15T08:34:06.149Z,95409.47
2023-04-15T08:35:39.175Z,95420.72
2023-04-15T08:37:11.549Z,95417.72
2023-04-15T08:38:44.711Z,95412.94
2023-04-15T08:40:17.044Z,95419.03
2023-04-15T08:41:52.119Z,95415.19
2023-04-15T08:43:26.968Z,95413.38
2023-04-15T08:44:58.823Z,95408.78
2023-04-15T08:46:31.669Z,95414.78
2023-04-15T08:48:03.634Z,95410.88
2023-04-15T08:49:36.241Z,95409.94
2023-04-15T08:51:09.745Z,95411.63
2023-04-15T08:52:41.384Z,95417.63
2023-04-15T08:54:13.145Z,95417.06
2023-04-15T08:55:48.199Z,95411.78
2023-04-15T08:57:20.231Z,95410.28
2023-04-15T08:58:52.231Z,95421.16
2023-04-15T09:00:24.491Z,95410.00
2023-04-15T09:01:56.862Z,95411.47
2023-04-15T09:03:28.646Z,95413.88
2023-04-15T09:05:00.977Z,95410.13
2023-04-15T09:06:34.197Z,95411.69
2023-04-15T09:08:06.668Z,95412.47
2023-04-15T09:09:40.295Z,95409.53
2023-04-15T09:11:12.320Z,95410.47
2023-04-15T09:12:43.935Z,95415.31
2023-04-15T09:14:16.672Z,95424.59
2023-04-15T09:15:48.855Z,95420.16
2023-04-15T09:17:21.744Z,95424.41
2023-04-15T09:18:53.808Z,95416.09
2023-04-15T09:20:25.539Z,95420.84
2023-04-15T09:21:59.845Z,95426.69
2023-04-15T09:23:32.203Z,95428.06
2023-04-15T09:25:04.575Z,95434.34
2023-04-15T09:26:36.975Z,95434.88
2023-04-15T09:28:08.909Z,95431.25
2023-04-15T09:29:42.142Z,95424.72
2023-04-15T09:31:13.917Z,95422.53
2023-04-15T09:32:49.853Z,95426.72
2023-04-15T09:34:22.039Z,95422.84
2023-04-15T09:35:58.543Z,95430.00
2023-04-15T09:37:36.979Z,95426.88
2023-04-15T09:39:08.998Z,95429.28
2023-04-15T09:40:41.872Z,95429.44
2023-04-15T09:42:14.189Z,95425.75
2023-04-15T09:43:45.852Z,95428.72
2023-04-15T09:45:17.530Z,95426.53
2023-04-15T09:46:49.411Z,95420.63
2023-04-15T09:48:22.087Z,95424.53
2023-04-15T09:49:56.540Z,95423.81
2023-04-15T09:51:34.726Z,95427.06
2023-04-15T09:53:09.424Z,95421.78
2023-04-15T09:54:41.620Z,95426.00
2023-04-15T09:56:13.589Z,95428.22
2023-04-15T09:57:47.040Z,95424.00
2023-04-15T09:59:20.167Z,95424.03
2023-04-15T10:00:53.198Z,95427.06
2023-04-15T10:02:24.929Z,95428.81
2023-04-15T10:03:57.060Z,95422.59
2023-04-15T10:05:29.839Z,95429.91
2023-04-15T10:07:05.175Z,95422.69
2023-04-15T10:08:38.795Z,95424.53
2023-04-15T10:10:11.372Z,95426.28
2023-04-15T10:11:44.082Z,95422.97
2023-04-15T10:13:18.022Z,95425.41
2023-04-15T10:14:53.099Z,95425.03
2023-04-15T10:16:27.646Z,95417.72
2023-04-15T10:17:59.468Z,95423.03
2023-04-15T10:19:31.848Z,95422.41
2023-04-15T10:21:03.693Z,95412.25
2023-04-15T10:22:35.581Z,95422.28
2023-04-15T10:24:08.628Z,95419.03
2023-04-15T10:25:40.268Z,95423.03
2023-04-15T10:27:12.130Z,95426.44
2023-04-15T10:28:43.813Z,95424.16
2023-04-15T10:30:15.672Z,95423.63
2023-04-15T10:31:47.366Z,95432.19
2023-04-15T10:33:20.570Z,95417.59
2023-04-15T10:34:54.347Z,95430.19
2023-04-15T10:36:26.370Z,95426.38
2023-04-15T10:37:58.085Z,95424.34
2023-04-15T10:39:41.595Z,95423.03
2023-04-15T10:41:19.531Z,95423.66
2023-04-15T10:42:52.789Z,95421.91
2023-04-15T10:44:24.460Z,95426.81
2023-04-15T10:45:56.251Z,95427.44
2023-04-15T10:47:28.547Z,95426.78
2023-04-15T10:49:00.457Z,95430.38
2023-04-15T10:50:32.678Z,95437.13
2023-04-15T10:52:04.426Z,95438.50
2023-04-15T10:53:37.930Z,95440.31
2023-04-15T10:55:17.871Z,95435.88
2023-04-15T10:56:51.622Z,95437.84
2023-04-15T10:58:24.139Z,95436.31
2023-04-15T11:00:13.012Z,95437.34
2023-04-15T11:01:51.873Z,95437.25
2023-04-15T11:03:36.835Z,95437.44
2023-04-15T11:05:08.658Z,95437.81
2023-04-15T11:06:43.970Z,95444.59
2023-04-15T11:08:16.347Z,95435.66
2023-04-15T11:09:47.952Z,95447.94
2023-04-15T11:11:21.548Z,95444.19
2023-04-15T11:12:53.894Z,95441.06
2023-04-15T11:14:25.783Z,95442.81
2023-04-15T11:15:58.893Z,95442.56
2023-04-15T11:17:31.034Z,95447.34
2023-04-15T11:19:03.584Z,95441.38
2023-04-15T11:20:35.380Z,95446.53
2023-04-15T11:22:08.338Z,95446.13
2023-04-15T11:23:41.421Z,95448.31
2023-04-15T11:25:23.234Z,95446.88
2023-04-15T11:26:59.874Z,95446.13
2023-04-15T11:28:31.892Z,95454.16
2023-04-15T11:30:17.416Z,95440.50
2023-04-15T11:31:49.799Z,95456.94
2023-04-15T11:33:22.322Z,95450.19
2023-04-15T11:34:53.960Z,95447.41
2023-04-15T11:36:27.266Z,95451.31
2023-04-15T11:37:58.961Z,95459.47
2023-04-15T11:39:30.647Z,95447.28
2023-04-15T11:41:02.341Z,95442.78
2023-04-15T11:42:46.719Z,95452.69
2023-04-15T11:44:21.138Z,95449.03
2023-04-15T11:45:54.580Z,95455.00
2023-04-15T11:47:26.328Z,95452.13
2023-04-15T11:48:58.162Z,95453.94
2023-04-15T11:50:29.789Z,95455.00
2023-04-15T11:52:01.413Z,95458.91
2023-04-15T11:53:40.875Z,95457.19
2023-04-15T11:55:12.494Z,95459.91
2023-04-15T11:56:44.160Z,95465.09
2023-04-15T11:58:18.348Z,95464.88
2023-04-15T11:59:55.063Z,95473.75
2023-04-15T12:01:33.234Z,95481.66
2023-04-15T12:03:24.477Z,95473.16
2023-04-15T12:05:03.971Z,95482.38
2023-04-15T12:06:36.870Z,95481.88
2023-04-15T12:08:08.644Z,95479.53
2023-04-15T12:09:40.801Z,95485.00
2023-04-15T12:11:12.466Z,95484.09
2023-04-15T12:12:44.082Z,95487.25
2023-04-15T12:14:25.020Z,95494.16
2023-04-15T12:15:56.774Z,95492.25
2023-04-15T12:17:31.449Z,95493.13
2023-04-15T12:19:24.412Z,95490.41
2023-04-15T12:20:56.094Z,95503.41
2023-04-15T12:22:27.725Z,95495.34
2023-04-15T12:24:02.367Z,95494.81
2023-04-15T12:25:35.372Z,95495.50
2023-04-15T12:27:07.892Z,95503.13
2023-04-15T12:28:40.661Z,95500.16
2023-04-15T12:30:14.135Z,95499.09
2023-04-15T12:31:50.648Z,95508.72
2023-04-15T12:33:22.603Z,95504.50
2023-04-15T12:34:57.031Z,95506.31
2023-04-15T12:36:28.928Z,95510.09
2023-04-15T12:38:00.723Z,95515.81
2023-04-15T12:39:34.910Z,95504.91
2023-04-15T12:41:06.510Z,95519.44
2023-04-15T12:42:38.181Z,95515.50
2023-04-15T12:44:10.086Z,95520.19
2023-04-15T12:45:43.044Z,95520.78
2023-04-15T12:47:14.790Z,95515.13
2023-04-15T12:48:46.600Z,95524.69
2023-04-15T12:50:18.486Z,95523.56
2023-04-15T12:51:50.698Z,95521.22
2023-04-15T12:53:22.371Z,95528.13
2023-04-15T12:54:53.967Z,95528.88
2023-04-15T12:56:25.679Z,95530.25
2023-04-15T12:57:57.453Z,95537.13
2023-04-15T12:59:29.226Z,95534.38
2023-04-15T13:01:02.291Z,95543.00
2023-04-15T13:02:34.352Z,95542.09
2023-04-15T13:04:06.452Z,95541.03
2023-04-15T13:05:39.739Z,95545.97
2023-04-15T13:07:13.547Z,95545.97
2023-04-15T13:08:57.462Z,95541.25
2023-04-15T13:10:29.775Z,95549.38
2023-04-15T13:12:01.415Z,95544.34
2023-04-15T13:13:33.125Z,95547.50
2023-04-15T13:15:05.809Z,95543.69
2023-04-15T13:16:39.146Z,95545.09
2023-04-15T13:18:13.358Z,95552.09
2023-04-15T13:19:44.968Z,95556.91
2023-04-15T13:21:16.907Z,95554.97
2023-04-15T13:22:49.052Z,95550.88
2023-04-15T13:24:20.917Z,95553.41
2023-04-15T13:25:53.015Z,95550.13
2023-04-15T13:27:24.693Z,95550.25
2023-04-15T13:28:56.765Z,95562.13
2023-04-15T13:30:28.465Z,95558.25
2023-04-15T13:32:01.683Z,95557.00
2023-04-15T13:33:33.406Z,95558.19
2023-04-15T13:35:05.800Z,95560.63
2023-04-15T13:36:37.499Z,95567.66
2023-04-15T13:38:09.162Z,95564.34
2023-04-15T13:39:43.017Z,95562.91
2023-04-15T13:41:14.611Z,95568.09
2023-04-15T13:42:47.129Z,95569.03
2023-04-15T13:44:19.911Z,95570.19
2023-04-15T13:45:53.262Z,95576.28
2023-04-15T13:47:26.376Z,95573.56
2023-04-15T13:48:58.173Z,95579.28
2023-04-15T13:50:29.893Z,95574.03
2023-04-15T13:52:03.911Z,95579.34
2023-04-15T13:53:39.171Z,95578.59
2023-04-15T13:55:19.287Z,95579.81
2023-04-15T13:56:52.384Z,95580.53
2023-04-15T13:58:24.021Z,95583.28
2023-04-15T13:59:55.667Z,95582.69
2023-04-15T14:01:27.530Z,95585.38
2023-04-15T14:03:00.877Z,95584.97
2023-04-15T14:04:32.833Z,95585.84
2023-04-15T14:06:04.853Z,95592.31
2023-04-15T14:07:36.623Z,95578.53
2023-04-15T14:09:08.276Z,95588.44
2023-04-15T14:10:41.805Z,95584.31
2023-04-15T14:12:13.445Z,95584.31
2023-04-15T14:13:45.203Z,95593.00
2023-04-15T14:15:16.983Z,95596.03
2023-04-15T14:16:48.837Z,95599.03
2023-04-15T14:18:22.200Z,95597.94
2023-04-15T14:19:53.846Z,95600.63
2023-04-15T14:21:26.397Z,95599.03
2023-04-15T14:22:58.033Z,95598.34
2023-04-15T14:24:29.657Z,95606.16
2023-04-15T14:26:01.316Z,95600.03
2023-04-15T14:27:32.927Z,95608.06
2023-04-15T14:29:04.735Z,95603.41
2023-04-15T14:30:36.510Z,95601.56
2023-04-15T14:32:11.995Z,95603.50
2023-04-15T14:33:46.338Z,95600.13
2023-04-15T14:35:18.054Z,95604.22
2023-04-15T14:36:49.887Z,95602.41
2023-04-15T14:38:22.769Z,95612.66
2023-04-15T14:39:54.464Z,95611.75
2023-04-15T14:41:26.237Z,95613.28
2023-04-15T14:43:00.997Z,95617.59
2023-04-15T14:44:32.738Z,95626.03
2023-04-15T14:46:04.553Z,95632.84
2023-04-15T14:47:36.305Z,95631.41
2023-04-15T14:49:09.579Z,95638.84
2023-04-15T14:50:41.273Z,95639.91
2023-04-15T14:52:13.058Z,95630.56
2023-04-15T14:53:45.027Z,95633.53
2023-04-15T14:55:16.961Z,95635.94
2023-04-15T14:57:00.328Z,95633.56
2023-04-15T14:58:36.283Z,95639.78
2023-04-15T15:00:08.842Z,95645.00
2023-04-15T15:01:43.797Z,95648.84
2023-04-15T15:03:15.824Z,95641.56
2023-04-15T15:04:49.089Z,95651.91
2023-04-15T15:06:20.878Z,95652.66
2023-04-15T15:07:52.527Z,95649.47
2023-04-15T15:09:25.072Z,95655.28
2023-04-15T15:10:56.746Z,95646.28
2023-04-15T15:12:28.497Z,95653.50
2023-04-15T15:14:00.193Z,95654.25
2023-04-15T15:15:31.806Z,95650.47
2023-04-15T15:17:03.428Z,95656.59
2023-04-15T15:18:35.775Z,95654.25
2023-04-15T15:20:09.768Z,95663.78
2023-04-15T15:21:41.395Z,95669.41
2023-04-15T15:23:13.049Z,95666.09
2023-04-15T15:24:46.804Z,95664.63
2023-04-15T15:26:19.335Z,95664.97
2023-04-15T15:27:51.091Z,95673.72
2023-04-15T15:29:25.319Z,95676.06
2023-04-15T15:30:57.025Z,95671.00
2023-04-15T15:32:28.798Z,95672.44
2023-04-15T15:34:00.630Z,95669.94
2023-04-15T15:35:33.613Z,95681.44
2023-04-15T15:37:05.290Z,95681.03
2023-04-15T15:38:36.957Z,95690.47
2023-04-15T15:40:09.366Z,95683.97
2023-04-15T15:41:41.045Z,95691.97
2023-04-15T15:43:12.672Z,95685.47
2023-04-15T15:44:44.274Z,95688.50
2023-04-15T15:46:15.904Z,95693.06
2023-04-15T15:47:47.599Z,95691.41
2023-04-15T15:49:19.805Z,95696.13
2023-04-15T15:50:53.581Z,95700.31
2023-04-15T15:52:25.410Z,95705.38
2023-04-15T15:53:57.052Z,95697.38
2023-04-15T15:55:28.852Z,95710.63
2023-04-15T15:57:00.481Z,95705.75
2023-04-15T15:58:32.093Z,95702.31
2023-04-15T16:00:12.069Z,95708.56
2023-04-15T16:01:46.755Z,95709.38
2023-04-15T16:03:18.641Z,95708.25
2023-04-15T16:04:52.451Z,95713.50
2023-04-15T16:06:26.579Z,95710.59
2023-04-15T16:07:58.175Z,95713.09
2023-04-15T16:09:29.892Z,95707.97
2023-04-15T16:11:01.514Z,95711.00
2023-04-15T16:12:34.949Z,95721.50
2023-04-15T16:14:06.759Z,95723.69
2023-04-15T16:15:38.512Z,95721.38
2023-04-15T16:17:10.290Z,95715.19
2023-04-15T16:18:41.907Z,95723.69
2023-04-15T16:20:15.165Z,95723.69
2023-04-15T16:21:48.150Z,95729.06
2023-04-15T16:23:19.847Z,95718.44
2023-04-15T16:24:51.505Z,95722.53
2023-04-15T16:26:23.168Z,95718.81
2023-04-15T16:28:05.536Z,95732.94
2023-04-15T16:29:43.289Z,95732.81
2023-04-15T16:31:14.874Z,95745.47
2023-04-15T16:32:47.217Z,95753.44
2023-04-15T16:34:19.920Z,95767.63
2023-04-15T16:35:52.819Z,95770.78
2023-04-15T16:37:26.140Z,95785.47
2023-04-15T16:38:57.819Z,95797.56
2023-04-15T16:40:29.472Z,95810.75
2023-04-15T16:42:02.431Z,95813.06
2023-04-15T16:43:34.151Z,95826.25
2023-04-15T16:45:06.793Z,95835.59
2023-04-15T16:46:40.769Z,95836.38
2023-04-15T16:48:12.775Z,95847.31
2023-04-15T16:49:44.574Z,95856.38
2023-04-15T16:51:16.504Z,95862.19
2023-04-15T16:52:49.544Z,95877.69
2023-04-15T16:54:21.179Z,95873.91
2023-04-15T16:55:52.792Z,95877.56
2023-04-15T16:57:32.661Z,95891.63
2023-04-15T16:59:18.537Z,95918.56
2023-04-15T17:00:50.733Z,95920.84
2023-04-15T17:02:22.819Z,95914.09
2023-04-15T17:03:56.134Z,95908.78
2023-04-15T17:05:28.194Z,95895.50
2023-04-15T17:06:59.819Z,95883.41
2023-04-15T17:08:33.028Z,95884.78
2023-04-15T17:10:05.531Z,95889.16
2023-04-15T17:11:40.364Z,95888.75
2023-04-15T17:13:12.102Z,95889.25
2023-04-15T17:14:43.869Z,95888.72
2023-04-15T17:16:15.751Z,95888.97
2023-04-15T17:17:47.715Z,95884.69
2023-04-15T17:19:19.369Z,95890.06
2023-04-15T17:20:51.061Z,95890.94
2023-04-15T17:22:22.875Z,95895.81
2023-04-15T17:23:56.148Z,95901.81
2023-04-15T17:25:28.969Z,95897.91
2023-04-15T17:27:03.625Z,95899.56
2023-04-15T17:28:36.138Z,95899.09
2023-04-15T17:30:11.741Z,95892.81
2023-04-15T17:31:43.425Z,95878.84
2023-04-15T17:33:56.006Z,95894.97
2023-04-15T17:35:07.868Z,95903.84
2023-04-15T17:36:42.542Z,95917.66
2023-04-15T17:38:16.328Z,95930.84
2023-04-15T17:39:49.314Z,95912.66
2023-04-15T17:41:21.196Z,95921.25
2023-04-15T17:42:53.002Z,95920.66
2023-04-15T17:44:25.338Z,95924.34
2023-04-15T17:45:59.186Z,95923.25
2023-04-15T17:47:31.101Z,95927.34
2023-04-15T17:49:03.339Z,95927.13
2023-04-15T17:50:35.514Z,95923.94
2023-04-15T17:52:07.184Z,95933.59
2023-04-15T17:53:38.857Z,95935.53
2023-04-15T17:55:12.008Z,95932.13
2023-04-15T17:56:43.766Z,95931.03
2023-04-15T17:58:15.576Z,95931.38
2023-04-15T17:59:47.884Z,95950.50
2023-04-15T18:01:19.614Z,95939.25
2023-04-15T18:02:51.553Z,95945.44
2023-04-15T18:04:26.424Z,95948.25
2023-04-15T18:06:00.648Z,95956.00
2023-04-15T18:07:32.334Z,95957.09
2023-04-15T18:09:04.552Z,95962.00